Time;durP1;ratioP1;P1;durP2;ratioP2;P2;SDS_P1;SDS_P2;PMS_P1;PMS_P2;Temp;Humidity;BMP_temperature;BMP_pressure;BME280_temperature;BME280_humidity;BME280_pressure;Samples;Min_cycle;Max_cycle;Signal;HPM_P1;HPM_P2
2020/12/28 00:00:45;;;;;;;22.52;4.07;;;15.50;99.90;;;;;;4969030;28;20658;-74
2020/12/28 00:03:12;;;;;;;20.35;4.13;;;15.40;99.90;;;;;;4978015;28;20046;-73
2020/12/28 00:05:39;;;;;;;24.83;4.53;;;15.40;99.90;;;;;;4978188;28;20030;-73
2020/12/28 00:08:07;;;;;;;24.27;4.27;;;15.40;99.90;;;;;;4978023;28;20057;-71
2020/12/28 00:10:36;;;;;;;29.15;5.43;;;15.20;99.90;;;;;;4976674;28;20035;-76
2020/12/28 00:13:03;;;;;;;25.73;5.13;;;15.20;99.90;;;;;;4978054;28;20030;-74
2020/12/28 00:15:30;;;;;;;23.42;4.40;;;15.10;99.90;;;;;;4976095;28;20030;-72
2020/12/28 00:18:00;;;;;;;29.85;4.90;;;15.10;99.90;;;;;;4970096;28;20031;-72
2020/12/28 00:20:28;;;;;;;29.80;5.22;;;15.10;99.90;;;;;;4977335;28;20322;-72
2020/12/28 00:22:54;;;;;;;32.33;4.90;;;15.00;99.90;;;;;;4978233;28;20031;-73
2020/12/28 00:25:23;;;;;;;30.65;4.85;;;15.00;99.90;;;;;;4977839;28;20468;-70
2020/12/28 00:27:50;;;;;;;22.23;5.13;;;15.00;99.90;;;;;;4975691;28;20047;-74
2020/12/28 00:30:17;;;;;;;36.67;4.88;;;15.00;99.90;;;;;;4977869;28;21802;-71
2020/12/28 00:32:45;;;;;;;22.85;4.03;;;14.90;99.90;;;;;;4978216;28;20026;-72
2020/12/28 00:35:13;;;;;;;31.50;5.20;;;14.80;99.90;;;;;;4977020;28;20046;-72
2020/12/28 00:37:40;;;;;;;26.13;4.47;;;14.80;99.90;;;;;;4975084;28;20027;-73
2020/12/28 00:40:08;;;;;;;37.50;12.93;;;14.80;99.90;;;;;;4974598;28;20278;-74
2020/12/28 00:42:35;;;;;;;18.33;4.20;;;14.70;99.90;;;;;;4959556;28;20093;-71
2020/12/28 00:45:02;;;;;;;28.13;7.22;;;14.80;99.90;;;;;;4977024;28;20049;-72
2020/12/28 00:47:29;;;;;;;32.45;7.25;;;14.80;99.90;;;;;;4960819;28;20042;-73
2020/12/28 00:49:55;;;;;;;39.47;9.95;;;14.80;99.90;;;;;;4975868;28;20049;-72
2020/12/28 00:52:22;;;;;;;26.30;7.13;;;14.70;99.90;;;;;;4977837;28;20039;-74
2020/12/28 00:54:51;;;;;;;26.30;5.78;;;14.80;99.90;;;;;;4977437;28;20496;-75
2020/12/28 00:57:18;;;;;;;41.25;10.15;;;14.80;99.90;;;;;;4958966;28;20038;-75
2020/12/28 00:59:45;;;;;;;47.00;13.93;;;14.70;99.90;;;;;;4975195;28;20026;-75
2020/12/28 01:02:11;;;;;;;60.67;24.30;;;14.60;99.90;;;;;;4977352;28;20096;-75
2020/12/28 01:04:39;;;;;;;71.80;26.40;;;14.70;99.90;;;;;;4960486;28;20615;-74
2020/12/28 01:07:06;;;;;;;52.67;21.13;;;14.70;99.90;;;;;;4956579;28;20042;-77
2020/12/28 01:09:33;;;;;;;57.83;19.63;;;14.70;99.90;;;;;;4960262;28;20052;-77
2020/12/28 01:11:59;;;;;;;35.88;6.15;;;14.60;99.90;;;;;;4978156;28;20058;-79
2020/12/28 01:14:26;;;;;;;58.25;21.95;;;14.60;99.90;;;;;;4973630;28;20060;-76
2020/12/28 01:16:53;;;;;;;41.38;12.23;;;14.60;99.90;;;;;;4963518;28;20037;-79
2020/12/28 01:19:20;;;;;;;59.20;20.95;;;14.50;99.90;;;;;;4980284;28;20472;-79
2020/12/28 01:21:46;;;;;;;86.82;29.90;;;14.50;99.90;;;;;;4981326;28;20079;-76
2020/12/28 01:24:13;;;;;;;45.13;16.00;;;14.50;99.90;;;;;;4981304;28;20101;-75
2020/12/28 01:26:42;;;;;;;39.33;11.63;;;14.50;99.90;;;;;;4981768;28;20445;-75
2020/12/28 01:29:10;;;;;;;37.78;9.98;;;14.40;99.90;;;;;;4964977;28;20393;-75
2020/12/28 01:31:37;;;;;;;44.90;9.02;;;14.50;99.90;;;;;;4980330;28;20113;-75
2020/12/28 01:34:08;;;;;;;46.47;14.05;;;14.50;99.90;;;;;;4982211;28;20022;-74
2020/12/28 01:36:34;;;;;;;45.70;16.60;;;14.40;99.90;;;;;;4981349;28;20510;-72
2020/12/28 01:39:01;;;;;;;26.58;7.07;;;14.40;99.90;;;;;;4964185;28;20031;-74
2020/12/28 01:41:28;;;;;;;38.75;11.00;;;14.50;99.90;;;;;;5482193;23;20058;-75
2020/12/28 01:43:54;;;;;;;36.22;10.98;;;14.50;99.90;;;;;;4963726;28;20034;-77
2020/12/28 01:46:23;;;;;;;45.25;16.13;;;14.40;99.90;;;;;;4961688;28;20037;-75
2020/12/28 01:48:50;;;;;;;48.13;12.27;;;14.40;99.90;;;;;;4962635;28;20035;-77
2020/12/28 01:51:18;;;;;;;51.90;14.30;;;14.50;99.90;;;;;;4972752;28;20071;-74
2020/12/28 01:53:46;;;;;;;453.27;264.42;;;14.40;99.90;;;;;;4981027;28;20069;-75
2020/12/28 01:56:15;;;;;;;72.25;34.00;;;14.30;99.90;;;;;;4978556;28;20416;-71
2020/12/28 01:58:42;;;;;;;62.45;30.23;;;14.30;99.90;;;;;;4980963;28;20092;-76
2020/12/28 02:01:10;;;;;;;31.00;7.68;;;14.30;99.90;;;;;;4979772;28;20041;-76
2020/12/28 02:03:37;;;;;;;24.13;8.73;;;14.30;99.90;;;;;;4963587;28;20096;-76
2020/12/28 02:06:04;;;;;;;34.83;11.57;;;14.20;99.90;;;;;;4962434;28;20036;-78
2020/12/28 02:08:30;;;;;;;34.33;10.68;;;14.20;99.90;;;;;;4982361;28;20717;-72
2020/12/28 02:10:57;;;;;;;34.10;9.73;;;14.20;99.90;;;;;;4980148;28;20428;-71
2020/12/28 02:13:23;;;;;;;25.65;6.38;;;14.10;99.90;;;;;;4979453;28;20038;-71
2020/12/28 02:15:50;;;;;;;23.48;5.53;;;14.10;99.90;;;;;;4981150;28;20023;-73
2020/12/28 02:18:20;;;;;;;33.92;7.75;;;14.10;99.90;;;;;;4963645;28;20022;-74
2020/12/28 02:20:47;;;;;;;22.58;4.78;;;14.20;99.90;;;;;;4979868;28;20581;-71
2020/12/28 02:23:14;;;;;;;25.52;6.78;;;14.20;99.90;;;;;;4979181;28;20138;-71
2020/12/28 02:25:41;;;;;;;23.77;5.03;;;14.20;99.90;;;;;;4980732;28;20034;-69
2020/12/28 02:28:07;;;;;;;30.50;5.43;;;14.20;99.90;;;;;;4981871;28;20064;-72
2020/12/28 02:30:35;;;;;;;29.75;5.32;;;14.40;99.90;;;;;;4978652;28;20031;-72
2020/12/28 02:33:02;;;;;;;15.50;3.50;;;14.50;99.90;;;;;;4980695;28;20103;-75
2020/12/28 02:35:29;;;;;;;29.08;5.53;;;14.50;99.90;;;;;;4980817;28;20053;-74
2020/12/28 02:37:55;;;;;;;20.83;5.75;;;14.40;99.90;;;;;;4980127;28;20030;-73
2020/12/28 02:40:22;;;;;;;20.40;5.03;;;14.50;99.90;;;;;;4979152;28;20234;-72
2020/12/28 02:42:49;;;;;;;27.55;5.05;;;14.30;99.90;;;;;;4979357;28;20034;-71
2020/12/28 02:45:15;;;;;;;33.03;5.85;;;14.40;99.90;;;;;;4963059;28;20034;-73
2020/12/28 02:47:42;;;;;;;27.75;4.35;;;14.30;99.90;;;;;;4980244;28;20048;-72
2020/12/28 02:50:09;;;;;;;22.73;4.55;;;14.30;99.90;;;;;;4978301;28;20038;-72
2020/12/28 02:52:35;;;;;;;24.85;4.60;;;14.30;99.90;;;;;;4979250;28;20031;-72
2020/12/28 02:55:02;;;;;;;24.45;4.72;;;14.30;99.90;;;;;;4978813;28;20022;-72
2020/12/28 02:57:29;;;;;;;16.60;5.35;;;14.40;99.90;;;;;;4980359;28;20031;-71
2020/12/28 02:59:55;;;;;;;30.23;5.47;;;14.30;99.90;;;;;;4979944;28;20042;-72
2020/12/28 03:02:22;;;;;;;25.35;6.57;;;14.40;99.90;;;;;;4979548;28;20488;-71
2020/12/28 03:04:48;;;;;;;30.35;6.38;;;14.30;99.90;;;;;;4963361;28;20939;-73
2020/12/28 03:07:15;;;;;;;22.67;4.53;;;14.20;99.90;;;;;;4979745;28;20089;-70
2020/12/28 03:09:41;;;;;;;27.13;5.57;;;14.20;99.90;;;;;;4963578;28;20106;-72
2020/12/28 03:12:08;;;;;;;18.73;4.40;;;14.20;99.90;;;;;;4964664;28;20030;-70
2020/12/28 03:14:35;;;;;;;21.67;4.90;;;14.20;99.90;;;;;;4978268;28;20396;-70
2020/12/28 03:17:01;;;;;;;25.27;6.65;;;14.30;99.90;;;;;;4979063;28;20034;-70
2020/12/28 03:19:28;;;;;;;29.00;5.93;;;14.20;99.90;;;;;;4978809;28;20030;-69
2020/12/28 03:21:54;;;;;;;27.58;5.30;;;14.20;99.90;;;;;;4979502;28;20038;-69
2020/12/28 03:24:21;;;;;;;26.55;5.65;;;14.20;99.90;;;;;;4979479;28;20053;-70
2020/12/28 03:26:47;;;;;;;33.63;5.85;;;14.10;99.90;;;;;;4978296;28;20027;-70
2020/12/28 03:29:14;;;;;;;27.40;5.32;;;14.20;99.90;;;;;;4979277;28;20053;-71
2020/12/28 03:31:42;;;;;;;34.58;5.80;;;14.10;99.90;;;;;;4977973;28;20027;-71
2020/12/28 03:34:09;;;;;;;28.23;5.88;;;14.20;99.90;;;;;;4960386;28;20397;-72
2020/12/28 03:36:36;;;;;;;22.27;4.85;;;14.20;99.90;;;;;;4977927;28;20030;-72
2020/12/28 03:39:04;;;;;;;15.40;5.03;;;14.20;99.90;;;;;;4979359;28;20035;-73
2020/12/28 03:41:32;;;;;;;24.70;5.17;;;14.20;99.90;;;;;;4979155;28;20046;-72
2020/12/28 03:43:59;;;;;;;30.85;4.75;;;14.30;99.90;;;;;;4977999;28;20027;-72
2020/12/28 03:46:26;;;;;;;27.92;6.90;;;14.20;99.90;;;;;;4977205;28;20042;-73
2020/12/28 03:48:52;;;;;;;20.48;4.05;;;14.30;99.90;;;;;;4962978;28;20030;-73
2020/12/28 03:51:19;;;;;;;21.52;4.68;;;14.20;99.90;;;;;;4978655;28;20038;-75
2020/12/28 03:53:46;;;;;;;31.35;5.43;;;14.20;99.90;;;;;;4961734;28;20046;-74
2020/12/28 03:56:12;;;;;;;21.83;5.18;;;14.30;99.90;;;;;;4977491;28;20023;-74
2020/12/28 03:58:39;;;;;;;18.55;5.05;;;14.30;99.90;;;;;;4977950;28;20624;-74
2020/12/28 04:01:07;;;;;;;19.23;4.85;;;14.30;99.90;;;;;;4977161;28;20054;-70
2020/12/28 04:03:34;;;;;;;28.05;5.18;;;14.40;99.90;;;;;;4977955;28;20026;-70
2020/12/28 04:06:04;;;;;;;27.73;4.65;;;14.40;99.90;;;;;;4979190;28;20093;-70
2020/12/28 04:08:31;;;;;;;25.15;4.55;;;14.40;99.90;;;;;;4978170;28;20379;-70
2020/12/28 04:10:58;;;;;;;22.92;4.80;;;14.40;99.90;;;;;;4976593;28;20045;-70
2020/12/28 04:13:25;;;;;;;22.92;5.00;;;14.30;99.90;;;;;;4978248;28;20412;-70
2020/12/28 04:15:51;;;;;;;37.38;7.05;;;14.40;99.90;;;;;;4977722;28;20069;-71
2020/12/28 04:18:18;;;;;;;29.90;6.13;;;14.30;99.90;;;;;;4978747;28;20054;-71
2020/12/28 04:20:44;;;;;;;27.95;5.18;;;14.40;99.90;;;;;;4978973;28;20485;-70
2020/12/28 04:23:11;;;;;;;25.42;6.22;;;14.50;99.90;;;;;;4978777;28;20039;-74
2020/12/28 04:25:38;;;;;;;30.05;6.60;;;14.50;99.90;;;;;;4978608;28;20427;-70
2020/12/28 04:28:04;;;;;;;22.42;5.00;;;14.60;99.90;;;;;;4960271;28;20089;-74
2020/12/28 04:30:31;;;;;;;26.27;5.22;;;14.60;99.90;;;;;;4977960;28;20058;-72
2020/12/28 04:32:57;;;;;;;21.25;5.95;;;14.50;99.90;;;;;;4960459;28;20038;-69
2020/12/28 04:35:24;;;;;;;36.03;7.13;;;14.40;99.90;;;;;;4978742;28;20038;-71
2020/12/28 04:37:51;;;;;;;33.55;6.28;;;14.40;99.90;;;;;;4976024;28;20023;-70
2020/12/28 04:40:18;;;;;;;31.00;6.47;;;14.40;99.90;;;;;;4959040;28;20026;-71
2020/12/28 04:42:45;;;;;;;24.92;4.85;;;14.30;99.90;;;;;;4961598;28;20298;-69
2020/12/28 04:45:11;;;;;;;32.97;7.32;;;14.40;99.90;;;;;;4978985;28;20093;-72
2020/12/28 04:47:38;;;;;;;29.90;6.63;;;14.40;99.90;;;;;;4980263;28;20026;-71
2020/12/28 04:50:07;;;;;;;35.97;5.97;;;14.40;99.90;;;;;;4979784;28;20124;-72
2020/12/28 04:52:36;;;;;;;29.43;6.07;;;14.50;99.90;;;;;;4964005;28;20582;-72
2020/12/28 04:55:03;;;;;;;23.92;5.20;;;14.40;99.90;;;;;;4980514;28;20092;-73
2020/12/28 04:57:30;;;;;;;25.23;5.10;;;14.40;99.90;;;;;;4979915;28;20077;-72
2020/12/28 04:59:57;;;;;;;24.65;5.10;;;14.40;99.90;;;;;;4964370;28;20058;-72
2020/12/28 05:02:26;;;;;;;17.70;5.15;;;14.50;99.90;;;;;;4963881;28;20044;-72
2020/12/28 05:05:03;;;;;;;21.23;5.63;;;14.50;99.90;;;;;;4962030;28;20424;-74
2020/12/28 05:07:33;;;;;;;24.48;4.80;;;14.50;99.90;;;;;;4981816;28;20066;-73
2020/12/28 05:10:03;;;;;;;27.10;5.78;;;14.60;99.90;;;;;;4981600;28;20085;-73
2020/12/28 05:12:30;;;;;;;26.52;6.05;;;14.60;99.90;;;;;;4979986;28;20548;-72
2020/12/28 05:15:07;;;;;;;25.23;5.85;;;14.70;99.90;;;;;;4981163;28;20030;-71
2020/12/28 05:17:34;;;;;;;23.40;5.18;;;14.70;99.90;;;;;;4979588;28;20571;-72
2020/12/28 05:20:03;;;;;;;19.95;5.15;;;14.60;99.90;;;;;;4964541;28;20190;-71
2020/12/28 05:22:30;;;;;;;21.50;4.93;;;14.60;99.90;;;;;;4981545;28;20137;-70
2020/12/28 05:24:58;;;;;;;22.67;4.95;;;14.50;99.90;;;;;;4981537;28;20121;-70
2020/12/28 05:27:25;;;;;;;20.33;4.80;;;14.40;99.90;;;;;;4980769;28;20106;-71
2020/12/28 05:29:52;;;;;;;22.55;4.95;;;14.40;99.90;;;;;;4965127;28;20072;-71
2020/12/28 05:32:19;;;;;;;22.90;5.53;;;14.30;99.90;;;;;;4980635;28;20054;-69
2020/12/28 05:34:46;;;;;;;21.15;6.00;;;14.40;99.90;;;;;;4980988;28;20300;-69
2020/12/28 05:37:14;;;;;;;22.45;5.03;;;14.40;99.90;;;;;;4981130;28;20038;-71
2020/12/28 05:39:42;;;;;;;20.85;4.85;;;14.30;99.90;;;;;;4981365;28;20018;-69
2020/12/28 05:42:13;;;;;;;26.38;6.25;;;14.40;99.90;;;;;;4963592;28;20050;-69
2020/12/28 05:44:46;;;;;;;29.00;6.18;;;14.40;99.90;;;;;;4981888;28;20117;-68
2020/12/28 05:47:15;;;;;;;29.92;7.18;;;14.40;99.90;;;;;;4982863;28;20057;-70
2020/12/28 05:49:43;;;;;;;28.58;8.10;;;14.40;99.90;;;;;;4964825;28;20075;-71
2020/12/28 05:52:12;;;;;;;27.33;6.17;;;14.30;99.90;;;;;;4965577;28;20084;-69
2020/12/28 05:54:40;;;;;;;27.52;5.45;;;14.30;99.90;;;;;;4981062;28;20026;-72
2020/12/28 05:57:07;;;;;;;21.80;4.72;;;14.30;99.90;;;;;;4964568;28;20038;-70
2020/12/28 05:59:35;;;;;;;33.40;7.20;;;14.30;99.90;;;;;;4982021;28;20213;-74
2020/12/28 06:02:06;;;;;;;30.10;5.60;;;14.40;99.90;;;;;;4982002;28;20440;-72
2020/12/28 06:04:33;;;;;;;19.55;4.95;;;14.30;99.90;;;;;;4982499;28;20027;-74
2020/12/28 06:07:03;;;;;;;28.77;6.68;;;14.30;99.90;;;;;;4981798;28;20034;-71
2020/12/28 06:09:30;;;;;;;26.08;5.90;;;14.40;99.90;;;;;;4981573;28;20030;-71
2020/12/28 06:12:10;;;;;;;32.33;7.55;;;14.30;99.90;;;;;;4964987;28;20026;-74
2020/12/28 06:14:40;;;;;;;26.25;6.07;;;14.30;99.90;;;;;;4963250;28;20098;-72
2020/12/28 06:17:09;;;;;;;26.35;5.55;;;14.30;99.90;;;;;;4979531;28;20034;-72
2020/12/28 06:19:36;;;;;;;43.58;8.13;;;14.40;99.90;;;;;;4964819;28;20037;-76
2020/12/28 06:22:04;;;;;;;27.35;6.72;;;14.40;99.90;;;;;;4965665;28;20042;-72
2020/12/28 06:24:34;;;;;;;32.22;6.50;;;14.30;99.90;;;;;;4963128;28;20053;-70
2020/12/28 06:27:07;;;;;;;26.50;6.60;;;14.20;99.90;;;;;;4979308;28;20129;-71
2020/12/28 06:29:36;;;;;;;34.25;6.78;;;14.20;99.90;;;;;;4979513;28;20038;-69
2020/12/28 06:32:16;;;;;;;35.00;6.00;;;14.20;99.90;;;;;;4980708;28;20031;-69
2020/12/28 06:34:47;;;;;;;27.27;5.80;;;14.20;99.90;;;;;;4946783;28;20038;-72
2020/12/28 06:37:14;;;;;;;31.85;6.55;;;14.20;99.90;;;;;;4980186;28;20086;-71
2020/12/28 06:39:41;;;;;;;24.77;6.60;;;14.10;99.90;;;;;;4981243;28;21951;-72
2020/12/28 06:42:15;;;;;;;24.48;7.63;;;14.10;99.90;;;;;;4964962;28;20668;-73
2020/12/28 06:44:42;;;;;;;25.98;7.00;;;14.00;99.90;;;;;;4980744;28;20391;-70
2020/12/28 06:47:21;;;;;;;34.70;8.70;;;14.00;99.90;;;;;;4981381;28;20711;-70
2020/12/28 06:49:48;;;;;;;33.00;7.65;;;14.00;99.90;;;;;;4979372;28;20764;-74
2020/12/28 06:52:15;;;;;;;34.15;8.40;;;13.90;99.90;;;;;;4962903;28;20058;-70
2020/12/28 06:54:43;;;;;;;27.45;7.75;;;13.80;99.90;;;;;;4982321;28;20022;-70
2020/12/28 06:57:10;;;;;;;32.20;9.07;;;13.80;99.90;;;;;;4977905;28;20582;-71
2020/12/28 06:59:39;;;;;;;30.35;7.72;;;13.80;99.90;;;;;;4979193;28;20040;-71
2020/12/28 07:02:10;;;;;;;25.15;7.75;;;13.70;99.90;;;;;;4963915;28;20058;-71
2020/12/28 07:04:40;;;;;;;29.60;7.03;;;13.70;99.90;;;;;;4980422;28;20346;-71
2020/12/28 07:07:07;;;;;;;23.67;6.93;;;13.70;99.90;;;;;;4978984;28;20038;-72
2020/12/28 07:09:37;;;;;;;34.22;7.50;;;13.70;99.90;;;;;;4976834;28;20078;-72
2020/12/28 07:12:10;;;;;;;33.08;8.15;;;13.70;99.90;;;;;;4983942;28;20080;-69
2020/12/28 07:14:38;;;;;;;35.90;8.50;;;13.70;99.90;;;;;;4978053;28;20026;-71
2020/12/28 07:17:05;;;;;;;31.42;7.00;;;13.80;99.90;;;;;;4960060;28;20031;-72
2020/12/28 07:19:32;;;;;;;27.38;7.40;;;13.60;99.90;;;;;;4962373;28;20328;-70
2020/12/28 07:21:59;;;;;;;30.35;9.20;;;13.60;99.90;;;;;;4980970;28;20576;-73
2020/12/28 07:24:27;;;;;;;38.28;8.25;;;13.60;99.90;;;;;;4963685;28;20046;-70
2020/12/28 07:26:55;;;;;;;35.58;8.50;;;13.60;99.90;;;;;;4981104;28;20041;-72
2020/12/28 07:29:22;;;;;;;35.08;9.77;;;13.50;99.90;;;;;;4980199;28;20113;-72
2020/12/28 07:31:49;;;;;;;26.80;8.13;;;13.50;99.90;;;;;;4979172;28;20030;-72
2020/12/28 07:34:20;;;;;;;35.67;8.55;;;13.40;99.90;;;;;;4963341;28;20116;-71
2020/12/28 07:36:51;;;;;;;27.80;7.40;;;13.30;99.90;;;;;;4980658;28;20027;-71
2020/12/28 07:39:19;;;;;;;43.45;9.20;;;13.40;99.90;;;;;;4963391;28;20037;-72
2020/12/28 07:41:45;;;;;;;32.97;8.10;;;13.20;99.90;;;;;;4979081;28;20047;-71
2020/12/28 07:44:14;;;;;;;31.73;9.10;;;13.20;99.90;;;;;;4963635;28;20038;-73
2020/12/28 07:46:44;;;;;;;;;;;13.10;99.90;;;;;;4962987;28;20042;-72
2020/12/28 07:49:24;;;;;;;31.75;8.35;;;13.10;99.90;;;;;;4981516;28;20019;-72
2020/12/28 07:52:14;;;;;;;34.25;8.35;;;13.00;99.90;;;;;;4979943;28;20093;-71
2020/12/28 07:55:03;;;;;;;34.78;8.48;;;13.00;99.90;;;;;;4980251;28;20044;-71
2020/12/28 07:57:48;;;;;;;29.10;9.38;;;12.90;99.90;;;;;;4963520;28;20034;-73
2020/12/28 08:00:18;;;;;;;35.00;7.72;;;12.90;99.90;;;;;;4962886;28;20044;-72
2020/12/28 08:03:26;;;;;;;29.88;7.88;;;12.90;99.90;;;;;;4981427;28;20045;-72
2020/12/28 08:05:54;;;;;;;31.00;8.07;;;13.00;99.90;;;;;;4920405;29;20083;-72
2020/12/28 08:08:26;;;;;;;26.33;7.30;;;13.00;99.90;;;;;;4904624;29;20057;-71
2020/12/28 08:10:55;;;;;;;27.88;8.32;;;12.90;99.90;;;;;;4935439;28;20495;-70
2020/12/28 08:13:31;;;;;;;37.90;9.63;;;12.90;99.90;;;;;;4981433;28;20039;-71
2020/12/28 08:16:12;;;;;;;25.52;7.68;;;12.80;99.90;;;;;;4978811;28;20089;-72
2020/12/28 08:18:49;;;;;;;28.40;8.70;;;12.70;99.90;;;;;;4965136;28;20037;-73
2020/12/28 08:21:17;;;;;;;37.92;8.57;;;12.60;99.90;;;;;;4964196;28;20062;-74
2020/12/28 08:23:54;;;;;;;32.92;7.43;;;12.60;99.90;;;;;;4983811;28;20027;-73
2020/12/28 08:26:22;;;;;;;35.22;7.65;;;12.30;99.90;;;;;;4983490;28;20042;-71
2020/12/28 08:28:52;;;;;;;31.58;7.70;;;12.20;99.90;;;;;;4967002;28;20030;-71
2020/12/28 08:31:34;;;;;;;26.92;7.07;;;12.10;99.90;;;;;;4964466;28;20034;-71
2020/12/28 08:34:02;;;;;;;30.95;5.75;;;12.10;99.90;;;;;;4982180;28;20468;-71
2020/12/28 08:36:29;;;;;;;26.58;6.07;;;12.10;99.90;;;;;;4968006;28;20026;-72
2020/12/28 08:38:56;;;;;;;24.17;6.28;;;12.10;99.90;;;;;;4981366;28;20346;-71
2020/12/28 08:41:23;;;;;;;26.85;6.55;;;12.20;99.90;;;;;;4982608;28;20417;-73
2020/12/28 08:43:49;;;;;;;27.20;7.00;;;12.10;99.90;;;;;;4982526;28;20039;-73
2020/12/28 08:46:23;;;;;;;27.00;6.72;;;12.20;99.90;;;;;;4966658;28;20305;-75
2020/12/28 08:48:50;;;;;;;26.00;6.20;;;12.20;99.90;;;;;;4966905;28;20417;-72
2020/12/28 08:51:19;;;;;;;20.17;5.63;;;12.30;99.90;;;;;;4965574;28;20038;-73
2020/12/28 08:53:50;;;;;;;33.28;5.70;;;12.30;99.90;;;;;;4966564;28;20034;-71
2020/12/28 08:56:17;;;;;;;22.33;5.75;;;12.30;99.90;;;;;;4982409;28;20026;-70
2020/12/28 08:58:44;;;;;;;34.20;8.52;;;12.30;99.90;;;;;;4981898;28;20587;-73
2020/12/28 09:01:13;;;;;;;21.45;6.20;;;12.30;99.90;;;;;;4981154;28;20475;-73
2020/12/28 09:03:40;;;;;;;27.25;5.82;;;12.30;99.90;;;;;;4982680;28;20038;-72
2020/12/28 09:06:07;;;;;;;26.75;7.22;;;12.30;99.90;;;;;;4964561;28;20118;-73
2020/12/28 09:08:34;;;;;;;30.63;7.55;;;12.30;99.90;;;;;;4983612;28;20044;-71
2020/12/28 09:11:01;;;;;;;30.60;7.93;;;12.30;99.90;;;;;;4965488;28;20026;-71
2020/12/28 09:13:27;;;;;;;38.22;7.40;;;12.30;99.90;;;;;;4981397;28;20041;-71
2020/12/28 09:15:54;;;;;;;30.52;7.22;;;12.30;99.90;;;;;;4982467;28;20063;-72
2020/12/28 09:18:21;;;;;;;26.80;5.78;;;12.30;99.90;;;;;;4982745;28;20022;-72
2020/12/28 09:20:47;;;;;;;36.38;7.05;;;12.30;99.90;;;;;;4965043;28;20049;-70
2020/12/28 09:23:14;;;;;;;23.98;6.22;;;12.20;99.90;;;;;;4954422;28;20031;-69
2020/12/28 09:25:41;;;;;;;33.60;7.70;;;12.20;99.90;;;;;;4982705;28;20022;-70
2020/12/28 09:28:07;;;;;;;20.00;6.50;;;12.10;99.90;;;;;;4983085;28;20121;-71
2020/12/28 09:30:35;;;;;;;29.50;6.82;;;12.20;99.90;;;;;;4962835;28;20046;-71
2020/12/28 09:33:02;;;;;;;22.13;7.00;;;12.20;99.90;;;;;;4979992;28;20447;-71
2020/12/28 09:35:28;;;;;;;34.08;7.60;;;12.30;99.90;;;;;;4981673;28;20045;-71
2020/12/28 09:37:55;;;;;;;26.15;5.70;;;12.30;99.90;;;;;;4965032;28;20142;-72
2020/12/28 09:40:22;;;;;;;25.98;6.35;;;12.30;99.90;;;;;;4963768;28;20102;-72
2020/12/28 09:42:48;;;;;;;51.63;7.90;;;12.30;99.90;;;;;;4982122;28;20038;-72
2020/12/28 09:48:00;;;;;;;31.98;6.78;;;12.20;99.90;;;;;;4982392;28;20045;-73
2020/12/28 09:50:26;;;;;;;27.08;6.50;;;12.30;99.90;;;;;;4964963;28;20035;-76
2020/12/28 09:52:53;;;;;;;28.92;7.72;;;12.30;99.90;;;;;;4981820;28;20034;-71
2020/12/28 09:55:19;;;;;;;32.63;6.05;;;12.30;99.90;;;;;;4982593;28;20019;-71
2020/12/28 09:57:47;;;;;;;27.13;6.38;;;12.40;99.90;;;;;;4981805;28;20461;-71
2020/12/28 10:00:15;;;;;;;32.30;5.95;;;12.40;99.90;;;;;;4981531;28;20038;-71
2020/12/28 10:02:42;;;;;;;29.55;5.45;;;12.50;99.90;;;;;;4965470;28;20034;-71
2020/12/28 10:05:10;;;;;;;24.63;6.90;;;12.50;99.90;;;;;;4980585;28;20041;-72
2020/12/28 10:07:37;;;;;;;24.65;6.35;;;12.50;99.90;;;;;;4980777;28;20121;-71
2020/12/28 10:10:05;;;;;;;23.60;5.10;;;12.50;99.90;;;;;;4979449;28;20444;-70
2020/12/28 10:12:32;;;;;;;26.42;5.15;;;12.60;99.90;;;;;;4980802;28;20031;-73
2020/12/28 10:14:59;;;;;;;23.80;5.38;;;12.60;99.90;;;;;;4964616;28;20069;-71
2020/12/28 10:17:26;;;;;;;28.55;5.38;;;12.70;99.90;;;;;;4961682;28;20053;-71
2020/12/28 10:19:52;;;;;;;31.42;6.22;;;12.70;99.90;;;;;;4980830;28;20030;-72
2020/12/28 10:22:19;;;;;;;29.15;5.18;;;12.80;99.90;;;;;;4982237;28;20030;-73
2020/12/28 10:24:46;;;;;;;23.15;5.93;;;12.90;99.90;;;;;;4948339;28;20057;-71
2020/12/28 10:27:13;;;;;;;33.40;5.88;;;12.90;99.90;;;;;;4980631;28;20428;-71
2020/12/28 10:29:40;;;;;;;38.10;5.53;;;12.90;99.90;;;;;;4982708;28;20034;-72
2020/12/28 10:32:06;;;;;;;35.70;6.25;;;12.90;99.90;;;;;;4965144;28;20027;-71
2020/12/28 10:34:33;;;;;;;23.40;5.93;;;12.90;99.90;;;;;;4964244;28;20417;-70
2020/12/28 10:37:00;;;;;;;28.52;5.25;;;12.90;99.90;;;;;;4981961;28;20105;-72
2020/12/28 10:39:26;;;;;;;22.92;5.18;;;12.90;99.90;;;;;;4964878;28;20089;-72
2020/12/28 10:41:53;;;;;;;24.83;5.20;;;12.90;99.90;;;;;;4972941;28;20055;-73
2020/12/28 10:44:21;;;;;;;28.65;6.88;;;12.90;99.90;;;;;;4963030;28;20034;-73
2020/12/28 10:46:49;;;;;;;25.90;6.05;;;12.90;99.90;;;;;;4964125;28;20037;-73
2020/12/28 10:49:16;;;;;;;19.30;4.00;;;12.90;99.90;;;;;;4981987;28;20030;-73
2020/12/28 10:51:45;;;;;;;26.08;6.22;;;12.90;99.90;;;;;;4981194;28;20041;-73
2020/12/28 10:54:11;;;;;;;;;;;12.90;99.90;;;;;;4969680;28;20037;-72
2020/12/28 10:56:38;;;;;;;24.75;5.25;;;13.00;99.90;;;;;;4963405;28;19964;-74
2020/12/28 10:59:04;;;;;;;17.95;2.80;;;12.80;99.90;;;;;;4982579;28;20045;-67
2020/12/28 11:01:31;;;;;;;31.77;2.53;;;12.50;99.90;;;;;;4980053;28;20372;-72
2020/12/28 11:03:58;;;;;;;21.33;3.60;;;11.90;99.90;;;;;;4979487;28;20069;-69
2020/12/28 11:06:24;;;;;;;9.20;1.48;;;11.40;99.90;;;;;;4979317;28;20034;-72
2020/12/28 11:08:51;;;;;;;8.23;1.45;;;11.20;99.90;;;;;;4963372;28;20057;-73
2020/12/28 11:11:18;;;;;;;9.10;1.45;;;11.00;99.90;;;;;;4980386;28;20026;-70
2020/12/28 11:13:45;;;;;;;17.35;1.88;;;11.00;99.90;;;;;;4980916;28;20031;-69
2020/12/28 11:16:12;;;;;;;14.57;2.22;;;10.90;99.90;;;;;;4982854;28;20141;-71
2020/12/28 11:18:39;;;;;;;18.27;2.15;;;10.90;99.90;;;;;;4979567;28;20405;-68
2020/12/28 11:21:06;;;;;;;5.45;1.33;;;10.90;99.90;;;;;;4963904;28;20134;-69
2020/12/28 11:24:18;;;;;;;8.80;1.38;;;10.80;99.90;;;;;;4979487;28;20452;-68
2020/12/28 11:26:20;;;;;;;16.80;1.48;;;10.80;99.90;;;;;;4967536;28;20054;-67
2020/12/28 11:28:47;;;;;;;10.25;1.80;;;10.90;99.90;;;;;;4980737;28;20026;-69
2020/12/28 11:31:15;;;;;;;12.70;1.77;;;10.80;99.90;;;;;;4962904;28;20440;-68
2020/12/28 11:33:42;;;;;;;9.63;1.38;;;10.90;99.90;;;;;;4962985;28;20042;-69
2020/12/28 11:36:08;;;;;;;6.20;1.00;;;10.90;99.90;;;;;;4980779;28;20116;-68
2020/12/28 11:38:35;;;;;;;11.77;1.65;;;10.80;99.90;;;;;;4978875;28;20111;-67
2020/12/28 11:41:02;;;;;;;17.55;1.45;;;10.80;99.90;;;;;;4979624;28;20042;-75
2020/12/28 11:43:28;;;;;;;16.25;2.15;;;10.80;99.90;;;;;;4979537;28;20034;-68
2020/12/28 11:45:55;;;;;;;9.88;1.08;;;10.80;99.90;;;;;;4980063;28;20907;-67
2020/12/28 11:48:22;;;;;;;10.68;1.27;;;10.80;99.90;;;;;;4977811;28;20029;-66
2020/12/28 11:50:49;;;;;;;14.60;1.73;;;10.80;99.90;;;;;;4963023;28;20026;-67
2020/12/28 11:53:16;;;;;;;19.75;2.72;;;10.70;99.90;;;;;;4981592;28;20026;-66
2020/12/28 11:58:28;;;;;;;13.50;1.10;;;10.60;99.90;;;;;;4978749;28;20353;-66
2020/12/28 12:00:54;;;;;;;16.13;1.42;;;10.60;99.90;;;;;;4979444;28;20371;-66
2020/12/28 12:03:21;;;;;;;10.23;1.15;;;10.60;99.90;;;;;;4980613;28;20083;-68
2020/12/28 12:05:47;;;;;;;8.48;0.68;;;10.60;99.90;;;;;;4962380;28;20106;-68
2020/12/28 12:08:14;;;;;;;4.43;0.80;;;10.40;99.90;;;;;;4960734;28;20455;-68
2020/12/28 12:10:41;;;;;;;7.68;1.15;;;10.40;99.90;;;;;;4962806;28;20030;-67
2020/12/28 12:13:07;;;;;;;5.85;0.98;;;10.40;99.90;;;;;;4979809;28;20053;-66
2020/12/28 12:15:34;;;;;;;13.20;1.38;;;10.50;99.90;;;;;;4961102;28;20026;-66
2020/12/28 12:18:01;;;;;;;13.98;1.55;;;10.50;99.90;;;;;;4963264;28;20038;-66
2020/12/28 12:20:27;;;;;;;5.88;0.65;;;10.50;99.90;;;;;;4962231;28;20360;-66
2020/12/28 12:22:54;;;;;;;10.13;0.80;;;10.50;99.90;;;;;;4980495;28;20031;-65
2020/12/28 12:25:20;;;;;;;4.78;0.73;;;10.60;99.90;;;;;;4962104;28;20051;-67
2020/12/28 12:27:47;;;;;;;9.82;0.88;;;10.60;99.90;;;;;;4979061;28;20061;-67
2020/12/28 12:30:14;;;;;;;4.32;0.50;;;10.60;99.90;;;;;;4980207;28;20142;-68
2020/12/28 12:32:40;;;;;;;10.35;1.40;;;10.60;99.90;;;;;;4979187;28;20049;-66
2020/12/28 12:35:07;;;;;;;3.88;0.60;;;10.60;99.90;;;;;;4979031;28;20113;-67
2020/12/28 12:37:34;;;;;;;9.63;1.10;;;10.60;99.90;;;;;;4978534;28;20037;-67
2020/12/28 12:40:00;;;;;;;8.48;0.70;;;10.50;99.90;;;;;;4977976;28;20045;-68
2020/12/28 12:42:27;;;;;;;6.72;0.82;;;10.50;99.90;;;;;;4979565;28;20052;-68
2020/12/28 12:44:54;;;;;;;8.88;1.15;;;10.50;99.90;;;;;;4979960;28;20437;-68
2020/12/28 12:47:20;;;;;;;7.78;0.60;;;10.60;99.90;;;;;;4978548;28;20035;-69